This is the latest recevied weather packets stored in our database for station/object N4OOJ-13. If no packets are shown the sender has not sent any weather packets the latest 10 day(s).
| Time | Temp. | Humidity | Pressure | Rain* | Wind** | Luminosity | Snow |
|---|---|---|---|---|---|---|---|
| 1788125429 | 30° C | 73% | 1020.9 hPa | 0 mm | - | - | - |
| 1788124828 | 30° C | 76% | 1020.9 hPa | 0 mm | - | - | - |
| 1788124226 | 30.56° C | 75% | 1020.9 hPa | 0 mm | - | - | - |
| 1788123619 | 31.11° C | 75% | 1020.9 hPa | 0 mm | - | - | - |
| 1788123025 | 31.11° C | 75% | 1021 hPa | 0 mm | - | - | - |
| 1788122420 | 31.11° C | 77% | 1021.1 hPa | 0 mm | - | - | - |
| 1788121821 | 30.56° C | 78% | 1021.2 hPa | 0 mm | - | - | - |
| 1788121216 | 29.44° C | 80% | 1021.4 hPa | 0 mm | - | - | - |
| 1788120630 | 29.44° C | 81% | 1021.4 hPa | 0 mm | - | - | - |
| 1788120024 | 29.44° C | 84% | 1021.4 hPa | 0 mm | - | - | - |
| 1788119418 | 29.44° C | 82% | 1021.4 hPa | 0 mm | - | - | - |
| 1788118832 | 29.44° C | 83% | 1021.4 hPa | 0 mm | - | - | - |
| 1788118227 | 29.44° C | 83% | 1021.5 hPa | 0 mm | - | - | - |
| 1788117626 | 29.44° C | 82% | 1021.4 hPa | 0 mm | - | - | - |
| 1788117024 | 30° C | 79% | 1021.4 hPa | 0 mm | - | - | - |
| 1788116425 | 30.56° C | 78% | 1021.5 hPa | 0 mm | - | - | - |
| 1788115819 | 30.56° C | 78% | 1021.6 hPa | 0 mm | - | - | - |
| 1788115220 | 31.11° C | 76% | 1021.9 hPa | 0 mm | - | - | - |
| 1788114633 | 30.56° C | 79% | 1022.1 hPa | 0 mm | - | - | - |
| 1788114027 | 30.56° C | 79% | 1022.4 hPa | 0 mm | - | - | - |
| 1788113426 | 30° C | 79% | 1022.4 hPa | 0 mm | - | - | - |
| 1788112820 | 30.56° C | 76% | 1022.4 hPa | 0 mm | - | - | - |
| 1788112222 | 30.56° C | 77% | 1022.4 hPa | 0 mm | - | - | - |
| 1788111621 | 30° C | 78% | 1022.5 hPa | 0 mm | - | - | - |
| 1788111016 | 30° C | 79% | 1022.5 hPa | 0 mm | - | - | - |
* Rain latest hour (hover to see other rain measurements)
** Current wind speed in m/s (hover to see current wind gust speed)